createdAt,value
2022-08-04T00:01:08.154Z,23.70
2022-08-04T00:03:48.521Z,23.50
2022-08-04T00:06:36.221Z,24.20
2022-08-04T00:09:31.175Z,23.00
2022-08-04T00:12:06.794Z,23.30
2022-08-04T00:14:49.301Z,23.30
2022-08-04T00:17:26.630Z,23.20
2022-08-04T00:20:03.978Z,23.20
2022-08-04T00:22:42.214Z,23.20
2022-08-04T00:25:15.151Z,23.20
2022-08-04T00:27:47.744Z,23.30
2022-08-04T00:30:19.563Z,23.30
2022-08-04T00:32:53.780Z,23.30
2022-08-04T00:35:27.518Z,23.40
2022-08-04T00:38:01.903Z,23.30
2022-08-04T00:40:50.934Z,23.20
2022-08-04T00:43:32.745Z,23.10
2022-08-04T00:46:35.878Z,23.00
2022-08-04T00:49:26.476Z,22.90
2022-08-04T00:52:32.508Z,22.90
2022-08-04T00:55:32.588Z,22.80
2022-08-04T00:58:12.637Z,22.80
2022-08-04T01:00:54.913Z,22.70
2022-08-04T01:04:06.055Z,22.70
2022-08-04T01:07:12.609Z,22.80
2022-08-04T01:10:19.883Z,22.80
2022-08-04T01:13:15.386Z,23.00
2022-08-04T01:16:08.041Z,23.10
2022-08-04T01:19:04.428Z,23.10
2022-08-04T01:21:39.820Z,23.10
2022-08-04T01:25:08.330Z,23.10
2022-08-04T01:28:18.747Z,23.20
2022-08-04T01:30:57.872Z,23.20
2022-08-04T01:33:32.422Z,23.20
2022-08-04T01:36:26.200Z,23.20
2022-08-04T01:38:58.241Z,23.20
2022-08-04T01:41:32.464Z,23.90
2022-08-04T01:44:07.260Z,23.20
2022-08-04T01:46:41.165Z,23.30
2022-08-04T01:49:14.240Z,23.70
2022-08-04T01:51:49.756Z,24.20
2022-08-04T01:54:23.009Z,23.30
2022-08-04T01:56:56.585Z,23.30
2022-08-04T01:59:31.326Z,23.40
2022-08-04T02:02:04.872Z,23.30
2022-08-04T02:04:37.343Z,23.10
2022-08-04T02:07:28.590Z,23.10
2022-08-04T02:10:35.048Z,23.20
2022-08-04T02:13:45.758Z,23.20
2022-08-04T02:16:32.818Z,23.20
2022-08-04T02:20:00.836Z,23.20
2022-08-04T02:22:48.032Z,23.20
2022-08-04T02:25:26.152Z,23.20
2022-08-04T02:28:21.478Z,23.10
2022-08-04T02:31:17.423Z,23.00
2022-08-04T02:34:13.717Z,23.10
2022-08-04T02:36:48.428Z,23.00
2022-08-04T02:39:22.236Z,22.90
2022-08-04T02:41:56.869Z,22.70
2022-08-04T02:44:30.509Z,23.60
2022-08-04T02:47:04.267Z,22.70
2022-08-04T02:49:37.486Z,22.70
2022-08-04T02:52:15.181Z,22.70
2022-08-04T02:54:54.059Z,22.60
2022-08-04T02:57:30.026Z,22.60
2022-08-04T03:00:14.928Z,22.60
2022-08-04T03:03:06.191Z,22.70
2022-08-04T03:06:11.635Z,24.90
2022-08-04T03:09:18.384Z,22.90
2022-08-04T03:12:21.827Z,22.80
2022-08-04T03:15:30.499Z,22.70
2022-08-04T03:18:24.227Z,22.60
2022-08-04T03:21:05.496Z,22.60
2022-08-04T03:23:57.122Z,22.50
2022-08-04T03:26:52.378Z,22.40
2022-08-04T03:29:55.356Z,22.30
2022-08-04T03:32:42.978Z,22.20
2022-08-04T03:35:14.672Z,22.20
2022-08-04T03:38:23.909Z,22.30
2022-08-04T03:41:57.370Z,22.30
2022-08-04T03:44:51.099Z,22.40
2022-08-04T03:47:42.289Z,22.30
2022-08-04T03:50:30.181Z,22.40
2022-08-04T03:53:29.238Z,22.40
2022-08-04T03:56:28.090Z,22.40
2022-08-04T03:59:24.328Z,22.30
2022-08-04T04:02:19.544Z,22.30
2022-08-04T04:05:37.348Z,22.30
2022-08-04T04:08:34.557Z,22.30
2022-08-04T04:11:18.256Z,22.30
2022-08-04T04:14:38.875Z,22.40
2022-08-04T04:17:52.937Z,22.40
2022-08-04T04:20:53.062Z,22.40
2022-08-04T04:23:48.948Z,22.50
2022-08-04T04:26:39.539Z,22.50
2022-08-04T04:29:20.526Z,22.50
2022-08-04T04:32:23.344Z,23.60
2022-08-04T04:35:09.070Z,22.40
2022-08-04T04:38:05.595Z,22.40
2022-08-04T04:41:00.252Z,22.40
2022-08-04T04:44:06.944Z,22.40
2022-08-04T04:47:05.561Z,22.40
2022-08-04T04:49:52.067Z,22.40
2022-08-04T04:52:48.422Z,22.30
2022-08-04T04:55:28.679Z,22.20
2022-08-04T04:58:02.183Z,22.20
2022-08-04T05:01:00.182Z,22.20
2022-08-04T05:03:54.440Z,22.30
2022-08-04T05:07:03.409Z,22.30
2022-08-04T05:10:08.018Z,22.40
2022-08-04T05:14:32.933Z,22.40
2022-08-04T05:15:56.679Z,22.40
2022-08-04T05:18:32.763Z,22.40
2022-08-04T05:21:31.912Z,22.50
2022-08-04T05:24:08.021Z,22.50
2022-08-04T05:26:50.723Z,22.50
2022-08-04T05:29:34.747Z,22.50
2022-08-04T05:32:14.404Z,22.50
2022-08-04T05:34:58.034Z,22.60
2022-08-04T05:37:32.057Z,22.80
2022-08-04T05:40:09.657Z,22.90
2022-08-04T05:42:41.666Z,23.00
2022-08-04T05:45:14.441Z,23.00
2022-08-04T05:47:47.636Z,23.00
2022-08-04T05:50:20.832Z,23.00
2022-08-04T05:52:59.927Z,23.10
2022-08-04T05:55:57.071Z,23.30
2022-08-04T05:58:30.725Z,23.30
2022-08-04T06:01:04.395Z,23.40
2022-08-04T06:03:37.758Z,23.40
2022-08-04T06:06:12.063Z,24.70
2022-08-04T06:08:43.911Z,23.30
2022-08-04T06:11:17.440Z,23.40
2022-08-04T06:13:57.346Z,23.50
2022-08-04T06:16:42.627Z,23.80
2022-08-04T06:20:02.830Z,23.70
2022-08-04T06:22:12.277Z,23.80
2022-08-04T06:24:50.526Z,24.20
2022-08-04T06:27:24.682Z,24.20
2022-08-04T06:29:59.493Z,24.00
2022-08-04T06:32:47.961Z,24.10
2022-08-04T06:35:20.048Z,24.10
2022-08-04T06:38:00.406Z,24.40
2022-08-04T06:40:34.903Z,24.20
2022-08-04T06:43:08.912Z,24.40
2022-08-04T06:45:43.998Z,24.30
2022-08-04T06:48:18.414Z,24.70
2022-08-04T06:51:32.066Z,24.30
2022-08-04T06:53:44.462Z,24.50
2022-08-04T06:56:19.170Z,25.00
2022-08-04T06:58:56.447Z,24.60
2022-08-04T07:01:31.587Z,24.70
2022-08-04T07:04:05.600Z,25.10
2022-08-04T07:06:37.739Z,25.70
2022-08-04T07:09:10.932Z,27.30
2022-08-04T07:11:44.257Z,28.80
2022-08-04T07:14:18.312Z,28.70
2022-08-04T07:16:50.903Z,27.90
2022-08-04T07:19:23.534Z,27.40
2022-08-04T07:22:16.160Z,27.10
2022-08-04T07:24:48.521Z,27.10
2022-08-04T07:27:48.297Z,27.80
2022-08-04T07:30:15.192Z,28.30
2022-08-04T07:32:48.030Z,29.40
2022-08-04T07:36:03.997Z,30.30
2022-08-04T07:38:16.256Z,31.10
2022-08-04T07:40:48.532Z,31.60
2022-08-04T07:43:21.274Z,31.90
2022-08-04T07:45:53.406Z,32.00
2022-08-04T07:48:26.278Z,31.70
2022-08-04T07:50:59.483Z,32.30
2022-08-04T07:53:53.362Z,32.30
2022-08-04T07:56:26.831Z,33.00
2022-08-04T07:59:00.180Z,33.20
2022-08-04T08:01:33.790Z,32.70
2022-08-04T08:04:09.587Z,33.10
2022-08-04T08:06:43.595Z,34.00
2022-08-04T08:09:19.326Z,33.30
2022-08-04T08:12:36.161Z,33.50
2022-08-04T08:14:46.172Z,33.10
2022-08-04T08:17:18.882Z,33.30
2022-08-04T08:19:51.582Z,33.00
2022-08-04T08:22:23.631Z,32.70
2022-08-04T08:24:56.401Z,33.20
2022-08-04T08:27:28.887Z,34.30
2022-08-04T08:30:00.640Z,36.90
2022-08-04T08:32:33.438Z,35.40
2022-08-04T08:35:06.592Z,34.60
2022-08-04T08:37:46.170Z,35.10
2022-08-04T08:40:40.734Z,34.70
2022-08-04T08:44:05.868Z,34.90
2022-08-04T08:46:57.206Z,35.60
2022-08-04T08:50:04.609Z,34.90
2022-08-04T08:53:02.228Z,34.90
2022-08-04T08:55:40.693Z,35.60
2022-08-04T08:58:46.966Z,35.20
2022-08-04T09:01:24.981Z,34.80
2022-08-04T09:04:23.569Z,35.30
2022-08-04T09:07:10.156Z,38.10
2022-08-04T09:10:14.033Z,38.00
2022-08-04T09:12:59.493Z,37.80
2022-08-04T09:15:43.759Z,38.80
2022-08-04T09:18:34.554Z,37.70
2022-08-04T09:21:28.292Z,36.20
2022-08-04T09:24:35.754Z,36.90
2022-08-04T09:27:47.425Z,36.30
2022-08-04T09:30:22.539Z,36.60
2022-08-04T09:33:13.944Z,36.70
2022-08-04T09:36:00.211Z,37.50
2022-08-04T09:38:55.434Z,37.50
2022-08-04T09:41:56.742Z,36.90
2022-08-04T09:44:52.165Z,36.50
2022-08-04T09:47:39.690Z,36.30
2022-08-04T09:50:17.426Z,36.80
2022-08-04T09:53:06.411Z,36.20
2022-08-04T09:55:55.777Z,36.50
2022-08-04T09:59:01.009Z,37.60
2022-08-04T10:01:34.874Z,37.90
2022-08-04T10:04:12.124Z,38.90
2022-08-04T10:07:22.672Z,37.60
2022-08-04T10:10:17.305Z,37.90
2022-08-04T10:12:55.573Z,37.90
2022-08-04T10:15:36.284Z,37.80
2022-08-04T10:18:31.199Z,38.30
2022-08-04T10:21:26.945Z,38.30
2022-08-04T10:24:18.199Z,38.40
2022-08-04T10:26:58.151Z,38.00
2022-08-04T10:29:48.266Z,36.80
2022-08-04T10:32:34.058Z,37.30
2022-08-04T10:35:21.315Z,38.00
2022-08-04T10:38:02.543Z,37.70
2022-08-04T10:40:48.111Z,37.30
2022-08-04T10:43:36.150Z,37.00
2022-08-04T10:46:26.293Z,36.50
2022-08-04T10:49:04.345Z,37.10
2022-08-04T10:51:58.975Z,38.30
2022-08-04T10:54:37.588Z,38.80
2022-08-04T10:57:25.958Z,38.20
2022-08-04T11:00:16.774Z,37.30
2022-08-04T11:03:00.936Z,38.00
2022-08-04T11:05:48.974Z,38.50
2022-08-04T11:08:33.359Z,39.10
2022-08-04T11:11:32.553Z,39.20
2022-08-04T11:14:31.397Z,39.20
2022-08-04T11:17:36.071Z,38.60
2022-08-04T11:20:39.134Z,37.80
2022-08-04T11:23:18.657Z,38.00
2022-08-04T11:26:03.136Z,37.60
2022-08-04T11:29:03.383Z,38.00
2022-08-04T11:31:41.792Z,37.70
2022-08-04T11:34:21.333Z,38.00
2022-08-04T11:37:13.842Z,38.30
2022-08-04T11:39:57.352Z,38.20
2022-08-04T11:42:38.163Z,38.30
2022-08-04T11:45:37.249Z,38.30
2022-08-04T11:48:20.211Z,38.10
2022-08-04T11:50:55.006Z,38.60
2022-08-04T11:53:36.600Z,38.00
2022-08-04T11:56:13.677Z,37.90
2022-08-04T11:59:10.648Z,37.50
2022-08-04T12:01:50.583Z,38.20
2022-08-04T12:04:56.135Z,37.50
2022-08-04T12:08:05.983Z,38.00
2022-08-04T12:11:15.835Z,37.80
2022-08-04T12:13:51.079Z,38.00
2022-08-04T12:16:30.267Z,37.40
2022-08-04T12:19:12.370Z,37.40
2022-08-04T12:22:01.912Z,37.60
2022-08-04T12:24:41.513Z,37.60
2022-08-04T12:27:16.490Z,37.20
2022-08-04T12:30:54.133Z,37.50
2022-08-04T12:32:53.729Z,37.60
2022-08-04T12:36:10.338Z,37.70
2022-08-04T12:38:47.196Z,38.00
2022-08-04T12:41:24.548Z,37.90
2022-08-04T12:44:36.638Z,37.70
2022-08-04T12:47:26.466Z,37.90
2022-08-04T12:50:04.782Z,38.30
2022-08-04T12:53:03.562Z,37.90
2022-08-04T12:55:38.275Z,37.70
2022-08-04T12:58:43.129Z,37.50
2022-08-04T13:02:07.162Z,37.50
2022-08-04T13:04:29.057Z,38.60
2022-08-04T13:07:10.514Z,38.10
2022-08-04T13:09:43.841Z,38.40
2022-08-04T13:12:22.360Z,38.00
2022-08-04T13:15:17.742Z,38.40
2022-08-04T13:18:02.343Z,37.70
2022-08-04T13:20:36.460Z,38.00
2022-08-04T13:23:12.497Z,38.10
2022-08-04T13:26:43.169Z,38.00
2022-08-04T13:28:47.043Z,38.20
2022-08-04T13:31:24.363Z,37.80
2022-08-04T13:34:06.260Z,38.00
2022-08-04T13:36:40.319Z,37.90
2022-08-04T13:39:19.365Z,37.40
2022-08-04T13:41:59.029Z,37.60
2022-08-04T13:44:38.748Z,38.10
2022-08-04T13:47:20.809Z,38.40
2022-08-04T13:50:27.986Z,38.10
2022-08-04T13:53:02.287Z,38.50
2022-08-04T13:55:37.091Z,38.60
2022-08-04T13:58:19.840Z,38.00
2022-08-04T14:00:59.494Z,38.00
2022-08-04T14:03:53.349Z,38.30
2022-08-04T14:06:32.126Z,38.00
2022-08-04T14:09:19.778Z,38.30
2022-08-04T14:12:09.987Z,38.20
2022-08-04T14:14:53.207Z,37.90
2022-08-04T14:17:30.052Z,37.80
2022-08-04T14:20:04.293Z,37.60
2022-08-04T14:22:37.455Z,38.10
2022-08-04T14:25:15.974Z,38.30
2022-08-04T14:27:57.240Z,38.50
2022-08-04T14:30:29.478Z,38.60
2022-08-04T14:34:01.616Z,37.80
2022-08-04T14:36:05.994Z,37.70
2022-08-04T14:38:54.085Z,38.40
2022-08-04T14:41:45.843Z,38.40
2022-08-04T14:44:18.478Z,38.70
2022-08-04T14:46:55.850Z,38.40
2022-08-04T14:49:27.768Z,38.30
2022-08-04T14:52:02.144Z,38.20
2022-08-04T14:54:35.341Z,38.50
2022-08-04T14:57:09.149Z,38.20
2022-08-04T15:00:00.579Z,37.80
2022-08-04T15:02:36.561Z,37.90
2022-08-04T15:06:01.817Z,38.00
2022-08-04T15:08:10.685Z,37.80
2022-08-04T15:10:44.313Z,37.90
2022-08-04T15:13:16.853Z,37.50
2022-08-04T15:16:07.300Z,37.70
2022-08-04T15:18:42.071Z,37.90
2022-08-04T15:21:15.027Z,38.10
2022-08-04T15:23:47.776Z,38.10
2022-08-04T15:26:33.633Z,38.20
2022-08-04T15:29:16.864Z,38.20
2022-08-04T15:32:06.779Z,37.80
2022-08-04T15:34:49.026Z,37.80
2022-08-04T15:37:49.421Z,37.70
2022-08-04T15:40:38.167Z,37.80
2022-08-04T16:10:35.280Z,37.40
2022-08-04T16:13:15.862Z,37.20
2022-08-04T16:34:56.044Z,37.70
2022-08-04T16:37:37.823Z,37.20
2022-08-04T16:40:37.230Z,37.50
2022-08-04T16:43:10.254Z,37.20
2022-08-04T16:46:04.133Z,37.10
2022-08-04T16:48:36.707Z,37.10
2022-08-04T16:53:52.576Z,36.70
2022-08-04T17:09:50.270Z,36.30
2022-08-04T17:12:30.419Z,36.20
2022-08-04T17:18:05.605Z,36.30
2022-08-04T17:29:13.708Z,39.30
2022-08-04T17:31:53.311Z,36.40
2022-08-04T17:34:26.479Z,36.30
2022-08-04T17:37:36.422Z,36.30
2022-08-04T17:40:13.478Z,36.30
2022-08-04T17:42:45.881Z,36.20
2022-08-04T17:45:50.247Z,36.10
2022-08-04T17:48:24.405Z,36.10
2022-08-04T17:51:16.805Z,36.00
2022-08-04T17:54:03.263Z,36.00
2022-08-04T17:59:55.421Z,35.70
2022-08-04T18:02:33.299Z,35.70
2022-08-04T18:05:11.814Z,35.50
2022-08-04T18:08:39.479Z,36.10
2022-08-04T18:10:51.828Z,35.30
2022-08-04T18:16:22.239Z,34.30
2022-08-04T18:19:12.672Z,34.80
2022-08-04T18:21:59.066Z,34.70
2022-08-04T18:24:56.279Z,34.60
2022-08-04T18:27:31.078Z,34.20
2022-08-04T18:30:33.590Z,34.40
2022-08-04T18:33:10.539Z,34.10
2022-08-04T18:36:34.656Z,33.80
2022-08-04T18:38:55.548Z,33.50
2022-08-04T18:42:02.214Z,33.20
2022-08-04T18:44:27.381Z,33.10
2022-08-04T18:50:59.081Z,32.90
2022-08-04T18:52:47.732Z,32.70
2022-08-04T18:55:56.226Z,34.70
2022-08-04T18:58:28.100Z,34.00
2022-08-04T19:01:01.215Z,32.70
2022-08-04T19:03:34.031Z,34.70
2022-08-04T19:06:08.728Z,31.90
2022-08-04T19:08:42.016Z,31.80
2022-08-04T19:11:37.286Z,31.70
2022-08-04T19:14:07.011Z,31.50
2022-08-04T19:16:47.306Z,31.40
2022-08-04T19:19:20.599Z,31.30
2022-08-04T19:21:59.488Z,32.60
2022-08-04T19:24:35.203Z,31.10
2022-08-04T19:27:09.058Z,31.10
2022-08-04T19:29:43.094Z,31.10
2022-08-04T19:32:16.470Z,30.90
2022-08-04T19:34:48.535Z,31.00
2022-08-04T19:37:58.596Z,30.90
2022-08-04T19:40:13.621Z,30.90
2022-08-04T19:42:51.413Z,30.60
2022-08-04T19:45:25.497Z,30.60
2022-08-04T19:48:19.482Z,30.60
2022-08-04T19:50:51.719Z,30.60
2022-08-04T19:53:37.010Z,30.60
2022-08-04T19:56:10.049Z,30.40
2022-08-04T19:58:48.079Z,30.40
2022-08-04T20:01:32.785Z,30.30
2022-08-04T20:04:11.360Z,30.30
2022-08-04T20:06:44.404Z,30.30
2022-08-04T20:09:24.786Z,30.20
2022-08-04T20:11:59.014Z,30.20
2022-08-04T20:18:34.775Z,30.30
2022-08-04T20:20:18.237Z,30.10
2022-08-04T20:22:53.206Z,30.00
2022-08-04T20:25:36.598Z,29.70
2022-08-04T20:28:25.830Z,29.50
2022-08-04T20:31:03.290Z,29.20
2022-08-04T20:33:36.012Z,29.40
2022-08-04T20:36:08.933Z,29.70
2022-08-04T20:38:42.758Z,29.70
2022-08-04T20:41:14.993Z,30.10
2022-08-04T20:43:51.797Z,29.50
2022-08-04T20:46:29.967Z,29.60
2022-08-04T20:49:03.576Z,29.40
2022-08-04T20:51:40.506Z,29.30
2022-08-04T20:54:16.538Z,29.20
2022-08-04T20:56:50.629Z,29.20
2022-08-04T20:59:23.076Z,29.10
2022-08-04T21:01:57.179Z,29.10
2022-08-04T21:04:31.209Z,29.10
2022-08-04T21:07:06.479Z,29.00
2022-08-04T21:09:42.554Z,28.90
2022-08-04T21:12:27.502Z,28.90
2022-08-04T21:15:13.351Z,28.80
2022-08-04T21:17:58.277Z,29.30
2022-08-04T21:20:42.398Z,28.80
2022-08-04T21:23:15.583Z,29.00
2022-08-04T21:25:55.864Z,29.10
2022-08-04T21:28:32.740Z,28.90
2022-08-04T21:31:11.166Z,28.90
2022-08-04T21:33:54.402Z,28.80
2022-08-04T21:36:27.290Z,29.20
2022-08-04T21:39:00.326Z,28.90
2022-08-04T21:41:33.209Z,30.20
2022-08-04T21:44:06.775Z,28.90
2022-08-04T21:46:44.329Z,28.70
2022-08-04T21:49:17.461Z,28.80
2022-08-04T21:51:58.808Z,28.50
2022-08-04T21:54:35.397Z,28.40
2022-08-04T21:57:09.630Z,28.50
2022-08-04T21:59:45.256Z,28.50
2022-08-04T22:02:18.460Z,28.60
2022-08-04T22:04:52.520Z,28.40
2022-08-04T22:07:25.515Z,28.50
2022-08-04T22:10:22.498Z,28.20
2022-08-04T22:13:07.907Z,28.20
2022-08-04T22:16:03.956Z,28.20
2022-08-04T22:18:32.413Z,28.10
2022-08-04T22:21:11.827Z,28.00
2022-08-04T22:23:47.078Z,28.20
2022-08-04T22:26:26.516Z,27.70
2022-08-04T22:28:59.667Z,27.50
2022-08-04T22:31:55.855Z,27.30
2022-08-04T22:34:25.105Z,27.10
2022-08-04T22:36:56.925Z,26.90
2022-08-04T22:39:30.396Z,26.90
2022-08-04T22:42:03.820Z,26.70
2022-08-04T22:44:37.261Z,26.70
2022-08-04T22:47:20.526Z,26.70
2022-08-04T22:50:13.398Z,26.80
2022-08-04T22:52:55.116Z,26.60
2022-08-04T22:56:06.326Z,26.90
2022-08-04T22:58:21.254Z,26.90
2022-08-04T23:01:01.482Z,27.20
2022-08-04T23:03:38.320Z,26.90
2022-08-04T23:06:11.976Z,27.00
2022-08-04T23:08:46.682Z,27.00
2022-08-04T23:11:20.557Z,27.00
2022-08-04T23:13:53.348Z,27.10
2022-08-04T23:16:25.175Z,26.90
2022-08-04T23:19:00.724Z,28.10
2022-08-04T23:21:47.660Z,27.00
2022-08-04T23:24:33.488Z,27.20
2022-08-04T23:27:06.133Z,27.20
2022-08-04T23:29:52.573Z,27.00
2022-08-04T23:32:25.924Z,26.90
2022-08-04T23:34:58.421Z,26.80
2022-08-04T23:37:35.501Z,26.90
2022-08-04T23:40:30.482Z,27.00
2022-08-04T23:43:12.154Z,26.80
2022-08-04T23:46:06.960Z,26.60
2022-08-04T23:48:40.764Z,26.10
2022-08-04T23:51:15.561Z,26.40
2022-08-04T23:54:02.334Z,26.40
2022-08-04T23:56:37.857Z,26.60
2022-08-04T23:59:21.566Z,26.60
